Latest Weather Observations for Avalon

IDV60901

Issued at 12:01 pm EDT Monday 2 March 2015 (issued every 10 minutes, with the page automatically refreshed every 10 minutes)

About weather observations | Map of Melbourne area stations | Latest observations for Melbourne area | Other Formats
Station Details ID: 087113 Name: AVALON AIRPORT Lat: -38.03 Lon: 144.48 Height: 10.6 m
Data from the previous 72 hours. | See also: Recent months at Avalon
Date/Time
EDT
Tmp

°C
App
Tmp
°C
Dew
Point
°C
Rel
Hum
%
Delta-T

°C
Wind Press
QNH
hPa
Press
MSL
hPa
Rain
since
9 am
mm
Dir
 
Spd
km/h
Gust
km/h
Spd
kts
Gust
kts
02/11:30am 18.1 15.5 9.5 57 4.5 ENE 13 24 7 13 1017.9 1017.9 0.0
02/11:00am 17.8 14.8 9.4 58 4.4 E 15 22 8 12 1018.4 1018.4 0.0
02/10:30am 17.1 13.7 9.3 60 4.1 ENE 17 26 9 14 1018.3 1018.3 0.0
02/10:00am 16.2 14.2 10.1 67 3.2 NNE 11 19 6 10 1018.5 1018.5 0.0
02/09:30am 14.6 13.0 10.2 75 2.3 NNW 9 13 5 7 1018.7 1018.7 0.0
02/08:30am 11.5 9.7 9.4 87 1.1 NW 9 13 5 7 1018.5 1018.5 0.0
02/08:00am 9.7 7.3 8.8 94 0.4 NW 11 11 6 6 1018.3 1018.3 0.0
02/07:30am 8.2 5.0 7.0 92 0.6 NNW 13 15 7 8 1018.3 1018.3 0.0
02/07:00am 8.4 6.0 6.9 90 0.7 WNW 9 11 5 6 1018.1 1018.1 0.0
02/06:30am 8.8 6.5 7.3 90 0.7 WNW 9 11 5 6 1018.0 1018.0 0.0
02/05:30am 9.4 6.8 7.7 89 0.8 WNW 11 11 6 6 1018.0 1018.0 0.0
02/05:00am 9.5 6.9 7.6 88 0.9 WNW 11 13 6 7 1018.1 1018.1 0.0
02/04:30am 9.3 6.6 7.4 88 0.9 WNW 11 13 6 7 1017.9 1017.9 0.0
02/04:00am 10.1 7.5 7.9 86 1.1 NW 11 13 6 7 1018.2 1018.2 0.0
02/03:30am 10.1 7.6 8.0 87 1.0 NW 11 13 6 7 1018.3 1018.3 0.0
02/03:00am 9.9 7.0 8.2 89 0.8 NNW 13 15 7 8 1018.5 1018.5 0.0
02/02:30am 10.8 8.8 8.6 86 1.1 WNW 9 11 5 6 1018.7 1018.7 0.0
02/02:00am 10.9 8.5 8.7 86 1.1 WNW 11 15 6 8 1019.1 1019.1 0.0
02/01:30am 10.7 7.9 8.5 86 1.1 NW 13 15 7 8 1019.2 1019.2 0.0
02/01:00am 10.8 8.4 8.6 86 1.1 NW 11 13 6 7 1018.8 1018.8 0.0
02/12:30am 10.5 8.8 8.3 86 1.1 NW 7 9 4 5 1018.7 1018.7 0.0
 
Date/Time
EDT
Tmp

°C
App
Tmp
°C
Dew
Point
°C
Rel
Hum
%
Delta-T

°C
Wind Press
QNH
hPa
Press
MSL
hPa
Rain
since
9 am
mm
Dir
 
Spd
km/h
Gust
km/h
Spd
kts
Gust
kts
01/11:30pm 12.2 10.6 8.7 79 1.7 SSW 7 13 4 7 1018.7 1018.7 0.0
01/11:00pm 12.6 9.6 9.1 79 1.8 SSW 15 17 8 9 1018.8 1018.8 0.0
01/10:30pm 13.3 10.2 9.0 75 2.2 SSW 15 20 8 11 1018.9 1018.9 0.0
01/10:00pm 13.9 10.5 9.3 74 2.3 SSW 17 20 9 11 1018.9 1018.9 0.0
01/09:30pm 14.3 10.4 9.3 72 2.6 SSW 20 28 11 15 1018.6 1018.6 0.0
01/09:00pm 14.9 10.7 9.7 71 2.7 SSW 22 28 12 15 1018.2 1018.2 0.0
01/08:30pm 15.4 11.3 10.0 70 2.8 S 22 28 12 15 1017.8 1017.8 0.0
01/08:00pm 15.9 11.6 10.7 71 2.8 S 24 30 13 16 1017.4 1017.4 0.0
01/07:30pm 16.4 11.3 10.5 68 3.1 S 28 37 15 20 1017.5 1017.5 0.0
01/07:00pm 17.5 12.1 10.9 65 3.5 SSW 30 37 16 20 1017.4 1017.4 0.0
01/06:30pm 18.4 13.2 11.5 64 3.8 S 30 35 16 19 1016.9 1016.9 0.0
01/05:30pm 19.0 13.3 11.8 63 4.0 S 33 41 18 22 1016.6 1016.6 0.0
01/05:00pm 19.1 13.0 11.9 63 4.0 SSW 35 46 19 25 1016.1 1016.1 0.0
01/04:30pm 20.3 14.8 12.0 59 4.6 S 32 44 17 24 1015.8 1015.8 0.0
01/04:00pm 20.2 14.5 11.7 58 4.7 S 33 44 18 24 1015.5 1015.5 0.0
01/03:30pm 20.0 13.7 11.2 57 4.8 S 35 46 19 25 1015.3 1015.3 0.0
01/03:00pm 20.8 15.3 11.7 56 5.1 S 32 43 17 23 1015.5 1015.5 0.0
01/02:30pm 20.6 14.7 11.2 55 5.2 S 33 43 18 23 1015.1 1015.1 0.0
01/02:00pm 20.6 15.2 12.3 59 4.7 S 32 41 17 22 1014.9 1014.9 0.0
01/01:30pm 21.2 16.2 12.1 56 5.1 S 30 41 16 22 1014.8 1014.8 0.0
01/01:00pm 20.9 16.0 13.6 63 4.2 SSW 32 41 17 22 1014.6 1014.6 0.0
01/12:30pm 20.2 15.3 12.4 61 4.4 SSW 30 41 16 22 1014.6 1014.6 0.0
01/12:00pm 20.3 16.8 12.3 60 4.5 SSW 22 32 12 17 1014.4 1014.4 0.0
01/11:30am 19.5 16.3 12.0 62 4.2 SW 20 30 11 16 1014.0 1014.0 0.0
01/11:00am 19.6 16.9 13.5 68 3.5 SSW 20 28 11 15 1013.7 1013.7 0.0
01/10:30am 18.8 16.4 13.9 73 2.8 SW 19 24 10 13 1013.4 1013.4 0.0
01/10:00am 18.0 15.9 13.5 75 2.5 WSW 17 24 9 13 1012.9 1012.9 0.0
01/09:30am 16.8 14.5 12.9 78 2.2 W 17 24 9 13 1012.6 1012.6 0.0
01/09:00am 16.3 14.0 13.0 81 1.8 WSW 17 22 9 12 1012.0 1012.0 13.4
01/08:30am 15.1 13.4 13.5 90 0.9 W 15 20 8 11 1011.5 1011.5 13.4
01/08:00am 13.9 11.9 12.8 93 0.6 WNW 15 19 8 10 1011.1 1011.1 13.4
01/07:30am 13.4 12.1 12.5 94 0.5 WNW 11 15 6 8 1010.2 1010.2 13.4
01/07:00am 13.3 11.5 12.2 93 0.6 W 13 17 7 9 1009.8 1009.8 13.4
01/06:30am 13.6 11.9 12.3 92 0.7 W 13 17 7 9 1009.2 1009.2 13.4
01/06:00am 13.9 11.9 12.6 92 0.7 W 15 19 8 10 1008.9 1008.9 13.4
01/05:30am 14.1 12.9 12.8 92 0.7 W 11 13 6 7 1008.4 1008.4 13.2
01/05:00am 14.5 13.0 13.0 91 0.8 W 13 19 7 10 1007.9 1007.9 13.2
01/04:30am 14.8 13.8 13.3 91 0.8 W 11 13 6 7 1007.6 1007.6 13.2
01/04:00am 15.1 13.0 13.5 90 0.9 W 17 22 9 12 1007.4 1007.4 13.2
01/03:30am 16.2 13.8 13.7 85 1.4 WSW 19 30 10 16 1007.2 1007.2 13.2
01/03:00am 15.9 14.0 14.3 90 0.9 SW 17 24 9 13 1007.0 1007.0 13.2
01/02:32am 15.3 11.5 14.7 96 0.3 SW 28 43 15 23 1006.9 1006.9 13.2
01/02:30am 15.4 11.6 14.6 95 0.5 SW 28 43 15 23 1007.0 1007.0 13.0
01/02:00am 16.5 13.5 15.9 96 0.4 SSW 26 37 14 20 1006.6 1006.6 12.6
01/01:49am 16.6 13.8 16.4 99 0.1 SSW 26 35 14 19 1006.5 1006.5 12.6
01/01:37am 16.7 14.3 16.5 99 0.1 SW 24 35 13 19 1006.5 1006.5 12.6
01/01:30am 16.7 13.2 16.5 99 0.1 SSW 30 41 16 22 1006.4 1006.4 12.4
01/01:11am 17.1 13.5 16.3 95 0.5 SSW 30 48 16 26 1006.3 1006.3 11.6
01/01:00am 18.1 16.9 17.1 94 0.6 SSW 19 28 10 15 1006.1 1006.1 10.8
01/12:58am 18.2 17.1 17.2 94 0.6 SSW 19 24 10 13 1006.1 1006.1 10.8
01/12:30am 18.8 19.9 18.1 96 0.4 WSW 9 13 5 7 1005.9 1005.9 10.8
01/12:27am 18.8 19.6 18.1 96 0.4 WSW 11 15 6 8 1005.9 1005.9 10.8
01/12:00am 18.9 19.0 18.4 97 0.3 W 15 20 8 11 1005.5 1005.5 10.6
 
Date/Time
EDT
Tmp

°C
App
Tmp
°C
Dew
Point
°C
Rel
Hum
%
Delta-T

°C
Wind Press
QNH
hPa
Press
MSL
hPa
Rain
since
9 am
mm
Dir
 
Spd
km/h
Gust
km/h
Spd
kts
Gust
kts
28/11:30pm 18.9 20.3 18.6 98 0.2 N 9 11 5 6 1005.7 1005.7 10.6
28/11:00pm 18.8 20.0 18.3 97 0.3 NW 9 13 5 7 1005.4 1005.4 10.4
28/10:52pm 18.6 20.1 18.1 97 0.3 WNW 7 13 4 7 1005.7 1005.7 10.4
28/10:30pm 18.8 20.0 18.3 97 0.3 WNW 9 11 5 6 1005.7 1005.7 9.8
28/10:00pm 18.9 18.6 18.2 96 0.4 W 17 20 9 11 1005.6 1005.6 8.2
28/09:30pm 19.3 20.3 18.6 96 0.4 W 11 15 6 8 1005.0 1005.0 7.0
28/09:00pm 19.2 19.2 18.0 93 0.7 WSW 15 20 8 11 1004.6 1004.6 6.0
28/08:30pm 19.3 15.7 17.6 90 1.0 WSW 33 50 18 27 1005.0 1005.0 4.0
28/08:14pm 20.1 14.1 16.5 80 2.2 WSW 43 63 23 34 1005.1 1005.1 1.0
28/08:02pm 21.5 16.8 16.9 75 2.8 SW 37 67 20 36 1003.7 1003.7 0.0
28/08:01pm 21.3 17.4 16.9 76 2.7 SW 33 56 18 30 1003.0 1003.0 0.0
28/08:00pm 21.3 17.6 16.9 76 2.7 SW 32 44 17 24 1001.9 1001.9 0.0
28/07:30pm 22.3 22.1 16.8 71 3.4 WSW 13 24 7 13 1000.6 1000.6 0.0
28/07:19pm 24.0 23.3 15.5 59 5.1 WSW 13 28 7 15 1000.3 1000.3 0.0
28/07:00pm 29.3 29.2 13.9 39 9.3 S 7 17 4 9 999.0 999.0 0.0
28/06:30pm 31.2 28.9 11.6 30 11.4 NNE 15 20 8 11 998.8 998.8 0.0
28/06:00pm 31.5 28.4 12.3 31 11.4 N 20 26 11 14 999.1 999.1 0.0
28/05:30pm 33.0 29.1 12.1 28 12.4 NNW 24 32 13 17 999.5 999.5 0.0
28/05:00pm 33.8 28.8 12.2 27 12.9 NNW 30 41 16 22 1000.0 1000.0 0.0
28/04:45pm 32.5 28.2 12.2 29 12.0 NW 26 44 14 24 1000.4 1000.4 0.0
28/04:30pm 31.5 30.5 14.6 36 10.3 E 13 17 7 9 1000.8 1000.8 0.0
28/04:00pm 28.5 28.1 16.1 47 7.7 ESE 13 19 7 10 1001.7 1001.7 0.0
28/03:30pm 28.4 27.7 13.1 39 9.0 E 9 15 5 8 1002.1 1002.1 0.0
28/03:00pm 27.1 25.7 12.3 39 8.6 NNE 11 15 6 8 1002.3 1002.3 0.0
28/02:30pm 26.8 25.0 12.1 40 8.5 NE 13 22 7 12 1002.9 1002.9 0.0
28/02:00pm 24.8 25.3 16.5 60 5.1 ESE 9 15 5 8 1003.5 1003.5 0.0
28/01:30pm 25.4 27.1 17.1 60 5.2 ENE 4 11 2 6 1004.0 1004.0 0.0
28/01:00pm 23.9 24.3 16.4 63 4.6 ENE 9 13 5 7 1004.4 1004.4 0.0
28/12:30pm 22.7 23.0 16.0 66 4.0 ENE 9 15 5 8 1004.9 1004.9 0.0
28/12:00pm 22.5 23.1 15.4 64 4.3 SE 6 9 3 5 1005.4 1005.4 0.0
28/11:30am 22.1 22.1 15.2 65 4.1 SSW 9 15 5 8 1005.9 1005.9 0.0
28/11:00am 21.0 20.5 16.0 73 3.0 SW 13 20 7 11 1006.3 1006.3 0.0
28/10:45am 20.7 18.9 15.5 72 3.1 WNW 19 35 10 19 1006.6 1006.6 0.0
28/10:30am 20.7 21.1 16.3 76 2.6 N 9 11 5 6 1005.4 1005.4 0.0
28/10:00am 20.0 19.7 16.4 80 2.2 NE 13 17 7 9 1005.2 1005.2 0.0
28/09:30am 19.5 18.4 16.3 82 1.9 NE 17 20 9 11 1005.4 1005.4 0.0
28/09:00am 18.7 19.0 16.1 85 1.6 ENE 9 11 5 6 1006.2 1006.2 0.0
28/08:30am 17.9 18.3 15.2 84 1.6 N 7 9 4 5 1006.3 1006.3 0.0
28/08:00am 17.6 16.6 14.7 83 1.7 NNE 13 17 7 9 1005.9 1005.9 0.0
28/07:30am 17.2 16.2 14.7 85 1.4 NNE 13 17 7 9 1005.8 1005.8 0.0
28/07:00am 17.0 16.7 14.5 85 1.4 NE 9 13 5 7 1005.5 1005.5 0.0
28/06:30am 17.1 16.8 14.4 84 1.5 NE 9 11 5 6 1005.8 1005.8 0.0
28/06:00am 17.1 16.1 14.6 85 1.4 NNE 13 19 7 10 1006.2 1006.2 0.0
28/05:30am 17.1 16.7 14.2 83 1.7 N 9 11 5 6 1006.4 1006.4 0.0
28/05:00am 17.4 15.0 13.9 80 2.0 ENE 19 24 10 13 1005.5 1005.5 0.0
28/04:30am 17.2 15.8 14.5 84 1.6 NE 15 19 8 10 1006.6 1006.6 0.0
28/04:00am 17.6 16.6 14.7 83 1.7 ENE 13 19 7 10 1007.1 1007.1 0.0
28/03:30am 17.3 17.1 14.6 84 1.6 NE 9 11 5 6 1007.9 1007.9 0.0
28/03:00am 17.3 17.5 14.6 84 1.6 NE 7 9 4 5 1008.6 1008.6 0.0
28/02:30am 17.3 17.4 14.4 83 1.7 E 7 9 4 5 1008.9 1008.9 0.0
28/02:00am 17.2 17.4 14.3 83 1.7 ENE 6 9 3 5 1009.3 1009.3 0.0
28/01:30am 17.1 17.2 14.0 82 1.8 E 6 9 3 5 1009.5 1009.5 0.0
28/01:00am 16.8 17.2 13.7 82 1.8 SE 4 7 2 4 1010.2 1010.2 0.0
28/12:30am 17.2 16.8 14.1 82 1.8 SSE 9 11 5 6 1010.4 1010.4 0.0
28/12:00am 17.3 16.9 14.2 82 1.8 SSE 9 13 5 7 1010.7 1010.7 0.0
 
Date/Time
EDT
Tmp

°C
App
Tmp
°C
Dew
Point
°C
Rel
Hum
%
Delta-T

°C
Wind Press
QNH
hPa
Press
MSL
hPa
Rain
since
9 am
mm
Dir
 
Spd
km/h
Gust
km/h
Spd
kts
Gust
kts
27/11:30pm 17.3 16.9 14.0 81 1.9 S 9 11 5 6 1011.2 1011.2 0.0
27/11:00pm 17.4 17.0 14.1 81 1.9 SSE 9 11 5 6 1011.1 1011.1 0.0
27/10:30pm 17.5 17.1 14.0 80 2.0 SSE 9 11 5 6 1011.4 1011.4 0.0
27/10:00pm 17.7 17.3 14.2 80 2.0 SSE 9 11 5 6 1011.2 1011.2 0.0
27/09:30pm 17.6 17.1 13.9 79 2.1 S 9 11 5 6 1010.9 1010.9 0.0
27/09:00pm 17.7 16.4 13.8 78 2.2 S 13 17 7 9 1010.8 1010.8 0.0
27/08:30pm 17.7 16.4 13.8 78 2.2 S 13 17 7 9 1010.6 1010.6 0.0
27/08:00pm 18.0 16.4 13.9 77 2.3 S 15 19 8 10 1010.4 1010.4 0.0
27/07:30pm 18.4 16.4 13.9 75 2.6 S 17 24 9 13 1010.1 1010.1 0.0
27/07:00pm 18.8 16.4 13.9 73 2.8 S 19 24 10 13 1009.8 1009.8 0.0
27/06:30pm 19.2 17.2 14.0 72 3.0 S 17 20 9 11 1009.5 1009.5 0.0
27/06:00pm 19.2 16.8 13.8 71 3.1 SSE 19 24 10 13 1009.3 1009.3 0.0
27/05:30pm 19.9 17.5 14.3 70 3.2 S 20 26 11 14 1009.7 1009.7 0.0
27/05:00pm 20.0 16.4 14.1 69 3.4 SSE 26 32 14 17 1009.5 1009.5 0.0
27/04:30pm 21.0 17.5 14.6 67 3.7 S 26 33 14 18 1009.7 1009.7 0.0
27/04:00pm 21.6 19.5 14.7 65 4.1 SE 19 24 10 13 1009.7 1009.7 0.0
27/03:30pm 21.5 19.2 14.6 65 4.1 ESE 20 26 11 14 1009.8 1009.8 0.0
27/03:00pm 22.5 20.6 15.1 63 4.4 SE 19 24 10 13 1009.9 1009.9 0.0
27/02:30pm 23.1 20.8 14.1 57 5.3 SE 19 22 10 12 1009.9 1009.9 0.0
27/02:00pm 22.9 19.6 12.8 53 5.8 ESE 22 28 12 15 1009.8 1009.8 0.0
27/01:30pm 24.4 23.2 13.9 52 6.2 SSE 13 20 7 11 1010.4 1010.4 0.0
27/01:00pm 22.7 20.5 12.0 50 6.0 SE 15 24 8 13 1010.5 1010.5 0.0
27/12:30pm 23.3 22.5 14.0 56 5.4 SE 11 22 6 12 1010.9 1010.9 0.0

Latest Capital City Observations: Canberra | Sydney | Melbourne | Brisbane | Adelaide | Perth | Hobart | Darwin

Other Formats:

Comma delimited format used in spreadsheet applications
http://www.bom.gov.au/fwo/IDV60901/IDV60901.94854.axf

JavaScript Object Notation format (JSON) in row-major order
http://www.bom.gov.au/fwo/IDV60901/IDV60901.94854.json